sensor_id;sensor_type;location;lat;lon;timestamp;temperature;humidity
64561;DHT22;50960;46.838;16.838;2023-12-20T00:01:44;-0.20;99.90
64561;DHT22;50960;46.838;16.838;2023-12-20T00:04:10;-0.20;99.90
64561;DHT22;50960;46.838;16.838;2023-12-20T00:06:36;-0.20;99.90
64561;DHT22;50960;46.838;16.838;2023-12-20T00:09:03;-0.20;99.90
64561;DHT22;50960;46.838;16.838;2023-12-20T00:11:29;-0.20;99.90
64561;DHT22;50960;46.838;16.838;2023-12-20T00:13:55;-0.20;99.90
64561;DHT22;50960;46.838;16.838;2023-12-20T00:16:21;-0.20;99.90
64561;DHT22;50960;46.838;16.838;2023-12-20T00:18:48;-0.20;99.90
64561;DHT22;50960;46.838;16.838;2023-12-20T00:21:14;-0.20;99.90
64561;DHT22;50960;46.838;16.838;2023-12-20T00:23:41;-0.10;99.90
64561;DHT22;50960;46.838;16.838;2023-12-20T00:26:07;-0.10;99.90
64561;DHT22;50960;46.838;16.838;2023-12-20T00:28:34;0.00;99.90
64561;DHT22;50960;46.838;16.838;2023-12-20T00:31:00;0.10;99.90
64561;DHT22;50960;46.838;16.838;2023-12-20T00:33:26;0.10;99.90
64561;DHT22;50960;46.838;16.838;2023-12-20T00:35:52;0.20;99.90
64561;DHT22;50960;46.838;16.838;2023-12-20T00:38:19;0.10;99.90
64561;DHT22;50960;46.838;16.838;2023-12-20T00:40:45;0.10;99.90
64561;DHT22;50960;46.838;16.838;2023-12-20T00:43:12;0.00;99.90
64561;DHT22;50960;46.838;16.838;2023-12-20T00:45:38;0.00;99.90
64561;DHT22;50960;46.838;16.838;2023-12-20T00:48:05;0.10;99.90
64561;DHT22;50960;46.838;16.838;2023-12-20T00:50:31;0.10;99.90
64561;DHT22;50960;46.838;16.838;2023-12-20T00:52:58;0.20;99.90
64561;DHT22;50960;46.838;16.838;2023-12-20T00:55:24;0.20;99.90
64561;DHT22;50960;46.838;16.838;2023-12-20T00:57:50;0.20;99.90
64561;DHT22;50960;46.838;16.838;2023-12-20T01:00:16;0.10;99.90
64561;DHT22;50960;46.838;16.838;2023-12-20T01:02:43;0.00;99.90
64561;DHT22;50960;46.838;16.838;2023-12-20T01:05:09;0.00;99.90
64561;DHT22;50960;46.838;16.838;2023-12-20T01:07:35;0.00;99.90
64561;DHT22;50960;46.838;16.838;2023-12-20T01:10:02;0.00;99.90
64561;DHT22;50960;46.838;16.838;2023-12-20T01:12:28;0.00;99.90
64561;DHT22;50960;46.838;16.838;2023-12-20T01:14:54;0.20;99.90
64561;DHT22;50960;46.838;16.838;2023-12-20T01:17:21;0.20;99.90
64561;DHT22;50960;46.838;16.838;2023-12-20T01:19:47;0.30;99.90
64561;DHT22;50960;46.838;16.838;2023-12-20T01:22:13;0.30;99.90
64561;DHT22;50960;46.838;16.838;2023-12-20T01:24:40;0.30;99.90
64561;DHT22;50960;46.838;16.838;2023-12-20T01:27:06;0.30;99.90
64561;DHT22;50960;46.838;16.838;2023-12-20T01:29:32;0.30;99.90
64561;DHT22;50960;46.838;16.838;2023-12-20T01:31:59;0.30;99.90
64561;DHT22;50960;46.838;16.838;2023-12-20T01:34:25;0.20;99.90
64561;DHT22;50960;46.838;16.838;2023-12-20T01:36:51;0.30;99.90
64561;DHT22;50960;46.838;16.838;2023-12-20T01:39:17;0.20;99.90
64561;DHT22;50960;46.838;16.838;2023-12-20T01:41:44;0.20;99.90
64561;DHT22;50960;46.838;16.838;2023-12-20T01:44:11;0.20;99.90
64561;DHT22;50960;46.838;16.838;2023-12-20T01:46:37;0.20;99.90
64561;DHT22;50960;46.838;16.838;2023-12-20T01:49:04;0.10;99.90
64561;DHT22;50960;46.838;16.838;2023-12-20T01:51:31;0.00;99.90
64561;DHT22;50960;46.838;16.838;2023-12-20T01:53:58;0.00;99.90
64561;DHT22;50960;46.838;16.838;2023-12-20T01:56:26;-0.10;99.90
64561;DHT22;50960;46.838;16.838;2023-12-20T01:58:56;-0.20;99.90
64561;DHT22;50960;46.838;16.838;2023-12-20T02:01:23;-0.30;99.90
64561;DHT22;50960;46.838;16.838;2023-12-20T02:03:49;-0.40;99.90
64561;DHT22;50960;46.838;16.838;2023-12-20T02:06:17;-0.60;99.90
64561;DHT22;50960;46.838;16.838;2023-12-20T02:08:44;-0.70;99.90
64561;DHT22;50960;46.838;16.838;2023-12-20T02:11:10;-0.80;99.90
64561;DHT22;50960;46.838;16.838;2023-12-20T02:13:37;-0.80;99.90
64561;DHT22;50960;46.838;16.838;2023-12-20T02:16:03;-0.80;99.90
64561;DHT22;50960;46.838;16.838;2023-12-20T02:18:30;-0.80;99.90
64561;DHT22;50960;46.838;16.838;2023-12-20T02:20:56;-0.70;99.90
64561;DHT22;50960;46.838;16.838;2023-12-20T02:23:22;-0.70;99.90
64561;DHT22;50960;46.838;16.838;2023-12-20T02:25:48;-0.80;99.90
64561;DHT22;50960;46.838;16.838;2023-12-20T02:28:15;-0.90;99.90
64561;DHT22;50960;46.838;16.838;2023-12-20T02:30:41;-1.00;99.90
64561;DHT22;50960;46.838;16.838;2023-12-20T02:33:10;-1.00;99.90
64561;DHT22;50960;46.838;16.838;2023-12-20T02:35:38;-1.00;99.90
64561;DHT22;50960;46.838;16.838;2023-12-20T02:38:04;-1.00;99.90
64561;DHT22;50960;46.838;16.838;2023-12-20T02:40:30;-1.00;99.90
64561;DHT22;50960;46.838;16.838;2023-12-20T02:42:57;-1.00;99.90
64561;DHT22;50960;46.838;16.838;2023-12-20T02:45:23;-1.00;99.90
64561;DHT22;50960;46.838;16.838;2023-12-20T02:47:50;-1.00;99.90
64561;DHT22;50960;46.838;16.838;2023-12-20T02:50:17;-1.00;99.90
64561;DHT22;50960;46.838;16.838;2023-12-20T02:52:45;-1.10;99.90
64561;DHT22;50960;46.838;16.838;2023-12-20T02:55:11;-1.10;99.90
64561;DHT22;50960;46.838;16.838;2023-12-20T02:57:37;-1.00;99.90
64561;DHT22;50960;46.838;16.838;2023-12-20T03:00:10;-0.90;99.90
64561;DHT22;50960;46.838;16.838;2023-12-20T03:02:37;-0.80;99.90
64561;DHT22;50960;46.838;16.838;2023-12-20T03:05:03;-0.70;99.90
64561;DHT22;50960;46.838;16.838;2023-12-20T03:07:30;-0.60;99.90
64561;DHT22;50960;46.838;16.838;2023-12-20T03:09:56;-0.70;99.90
64561;DHT22;50960;46.838;16.838;2023-12-20T03:12:23;-0.70;99.90
64561;DHT22;50960;46.838;16.838;2023-12-20T03:14:49;-0.60;99.90
64561;DHT22;50960;46.838;16.838;2023-12-20T03:17:15;-0.60;99.90
64561;DHT22;50960;46.838;16.838;2023-12-20T03:19:42;-0.50;99.90
64561;DHT22;50960;46.838;16.838;2023-12-20T03:22:08;-0.40;99.90
64561;DHT22;50960;46.838;16.838;2023-12-20T03:24:34;-0.30;99.90
64561;DHT22;50960;46.838;16.838;2023-12-20T03:27:00;-0.10;99.90
64561;DHT22;50960;46.838;16.838;2023-12-20T03:29:26;-0.10;99.90
64561;DHT22;50960;46.838;16.838;2023-12-20T03:31:53;-0.10;99.90
64561;DHT22;50960;46.838;16.838;2023-12-20T03:34:19;0.00;99.90
64561;DHT22;50960;46.838;16.838;2023-12-20T03:36:45;0.10;99.90
64561;DHT22;50960;46.838;16.838;2023-12-20T03:39:13;0.10;99.90
64561;DHT22;50960;46.838;16.838;2023-12-20T03:41:40;0.10;99.90
64561;DHT22;50960;46.838;16.838;2023-12-20T03:44:06;0.10;99.90
64561;DHT22;50960;46.838;16.838;2023-12-20T03:46:32;0.20;99.90
64561;DHT22;50960;46.838;16.838;2023-12-20T03:48:58;0.20;99.90
64561;DHT22;50960;46.838;16.838;2023-12-20T03:51:24;0.30;99.90
64561;DHT22;50960;46.838;16.838;2023-12-20T03:53:51;0.30;99.90
64561;DHT22;50960;46.838;16.838;2023-12-20T03:56:17;0.30;99.90
64561;DHT22;50960;46.838;16.838;2023-12-20T03:58:43;0.30;99.90
64561;DHT22;50960;46.838;16.838;2023-12-20T04:01:10;0.40;99.90
64561;DHT22;50960;46.838;16.838;2023-12-20T04:03:39;0.40;99.90
64561;DHT22;50960;46.838;16.838;2023-12-20T04:06:06;0.40;99.90
64561;DHT22;50960;46.838;16.838;2023-12-20T04:08:32;0.40;99.90
64561;DHT22;50960;46.838;16.838;2023-12-20T04:10:58;0.40;99.90
64561;DHT22;50960;46.838;16.838;2023-12-20T04:13:25;0.50;99.90
64561;DHT22;50960;46.838;16.838;2023-12-20T04:15:51;0.50;99.90
64561;DHT22;50960;46.838;16.838;2023-12-20T04:18:18;0.50;99.90
64561;DHT22;50960;46.838;16.838;2023-12-20T04:20:44;0.60;99.90
64561;DHT22;50960;46.838;16.838;2023-12-20T04:23:11;0.60;99.90
64561;DHT22;50960;46.838;16.838;2023-12-20T04:25:37;0.60;99.90
64561;DHT22;50960;46.838;16.838;2023-12-20T04:28:03;0.60;99.90
64561;DHT22;50960;46.838;16.838;2023-12-20T04:30:29;0.60;99.90
64561;DHT22;50960;46.838;16.838;2023-12-20T04:32:56;0.70;99.90
64561;DHT22;50960;46.838;16.838;2023-12-20T04:35:23;0.70;99.90
64561;DHT22;50960;46.838;16.838;2023-12-20T04:37:49;0.70;99.90
64561;DHT22;50960;46.838;16.838;2023-12-20T07:58:20;1.10;99.90
64561;DHT22;50960;46.838;16.838;2023-12-20T08:00:46;0.70;99.90
64561;DHT22;50960;46.838;16.838;2023-12-20T09:27:01;2.00;99.90
64561;DHT22;50960;46.838;16.838;2023-12-20T09:29:28;1.60;99.90
64561;DHT22;50960;46.838;16.838;2023-12-20T09:31:55;1.90;99.90
64561;DHT22;50960;46.838;16.838;2023-12-20T09:34:21;1.60;99.90
64561;DHT22;50960;46.838;16.838;2023-12-20T09:36:48;1.90;99.90
64561;DHT22;50960;46.838;16.838;2023-12-20T09:39:14;2.40;99.90
64561;DHT22;50960;46.838;16.838;2023-12-20T09:41:44;2.60;99.90
64561;DHT22;50960;46.838;16.838;2023-12-20T09:44:15;2.30;99.90
64561;DHT22;50960;46.838;16.838;2023-12-20T09:46:46;2.60;99.90
64561;DHT22;50960;46.838;16.838;2023-12-20T09:49:19;2.90;99.90
64561;DHT22;50960;46.838;16.838;2023-12-20T09:51:47;3.50;99.90
64561;DHT22;50960;46.838;16.838;2023-12-20T09:54:17;3.70;99.90
64561;DHT22;50960;46.838;16.838;2023-12-20T09:56:44;3.50;99.90
64561;DHT22;50960;46.838;16.838;2023-12-20T09:59:11;3.40;99.90
64561;DHT22;50960;46.838;16.838;2023-12-20T10:01:39;3.40;99.90
64561;DHT22;50960;46.838;16.838;2023-12-20T10:04:10;3.30;99.90
64561;DHT22;50960;46.838;16.838;2023-12-20T10:06:41;3.40;99.90
64561;DHT22;50960;46.838;16.838;2023-12-20T10:09:10;3.30;99.90
64561;DHT22;50960;46.838;16.838;2023-12-20T10:11:37;3.40;99.90
64561;DHT22;50960;46.838;16.838;2023-12-20T10:14:05;3.40;99.90
64561;DHT22;50960;46.838;16.838;2023-12-20T10:16:32;2.70;99.90
64561;DHT22;50960;46.838;16.838;2023-12-20T10:18:59;2.70;99.90
64561;DHT22;50960;46.838;16.838;2023-12-20T10:21:27;3.00;99.90
64561;DHT22;50960;46.838;16.838;2023-12-20T10:23:54;2.70;99.90
64561;DHT22;50960;46.838;16.838;2023-12-20T10:26:22;2.60;99.90
64561;DHT22;50960;46.838;16.838;2023-12-20T10:28:54;2.40;99.90
64561;DHT22;50960;46.838;16.838;2023-12-20T10:31:31;2.70;99.90
64561;DHT22;50960;46.838;16.838;2023-12-20T10:33:58;2.90;99.90
64561;DHT22;50960;46.838;16.838;2023-12-20T10:36:31;2.90;99.90
64561;DHT22;50960;46.838;16.838;2023-12-20T10:38:59;3.00;99.90
64561;DHT22;50960;46.838;16.838;2023-12-20T10:41:30;3.00;99.90
64561;DHT22;50960;46.838;16.838;2023-12-20T10:44:04;3.10;99.90
64561;DHT22;50960;46.838;16.838;2023-12-20T10:46:34;3.20;99.90
64561;DHT22;50960;46.838;16.838;2023-12-20T10:49:04;2.90;99.90
64561;DHT22;50960;46.838;16.838;2023-12-20T10:51:31;2.80;99.90
64561;DHT22;50960;46.838;16.838;2023-12-20T10:53:59;2.70;99.90
64561;DHT22;50960;46.838;16.838;2023-12-20T10:56:32;3.10;99.90
64561;DHT22;50960;46.838;16.838;2023-12-20T10:59:02;3.40;99.90
64561;DHT22;50960;46.838;16.838;2023-12-20T11:01:31;3.50;99.90
64561;DHT22;50960;46.838;16.838;2023-12-20T11:03:59;3.60;99.90
64561;DHT22;50960;46.838;16.838;2023-12-20T11:06:47;3.70;99.90
64561;DHT22;50960;46.838;16.838;2023-12-20T11:12:02;3.70;99.90
64561;DHT22;50960;46.838;16.838;2023-12-20T11:14:53;3.80;99.90
64561;DHT22;50960;46.838;16.838;2023-12-20T11:17:21;3.80;99.90
64561;DHT22;50960;46.838;16.838;2023-12-20T11:22:29;3.90;99.90
64561;DHT22;50960;46.838;16.838;2023-12-20T11:25:10;4.10;99.90
64561;DHT22;50960;46.838;16.838;2023-12-20T11:27:41;4.30;99.90
64561;DHT22;50960;46.838;16.838;2023-12-20T11:30:08;4.20;99.90
64561;DHT22;50960;46.838;16.838;2023-12-20T11:32:36;4.40;99.90
64561;DHT22;50960;46.838;16.838;2023-12-20T11:37:36;4.40;99.90
64561;DHT22;50960;46.838;16.838;2023-12-20T11:40:05;4.10;99.90
64561;DHT22;50960;46.838;16.838;2023-12-20T11:42:38;3.90;99.90
64561;DHT22;50960;46.838;16.838;2023-12-20T11:45:08;4.30;99.90
64561;DHT22;50960;46.838;16.838;2023-12-20T11:47:35;4.30;99.90
64561;DHT22;50960;46.838;16.838;2023-12-20T11:50:02;4.50;99.90
64561;DHT22;50960;46.838;16.838;2023-12-20T11:52:30;4.80;99.90
64561;DHT22;50960;46.838;16.838;2023-12-20T11:54:57;4.40;99.90
64561;DHT22;50960;46.838;16.838;2023-12-20T11:57:24;4.50;99.90
64561;DHT22;50960;46.838;16.838;2023-12-20T11:59:50;4.90;99.90
64561;DHT22;50960;46.838;16.838;2023-12-20T12:02:17;4.80;99.90
64561;DHT22;50960;46.838;16.838;2023-12-20T12:04:43;4.80;99.90
64561;DHT22;50960;46.838;16.838;2023-12-20T12:07:09;4.50;99.90
64561;DHT22;50960;46.838;16.838;2023-12-20T12:09:36;4.40;99.90
64561;DHT22;50960;46.838;16.838;2023-12-20T12:12:02;4.10;99.90
64561;DHT22;50960;46.838;16.838;2023-12-20T12:14:29;3.90;99.90
64561;DHT22;50960;46.838;16.838;2023-12-20T12:16:55;3.70;99.90
64561;DHT22;50960;46.838;16.838;2023-12-20T12:19:25;3.60;99.90
64561;DHT22;50960;46.838;16.838;2023-12-20T12:22:13;3.90;99.90
64561;DHT22;50960;46.838;16.838;2023-12-20T12:24:40;4.00;99.90
64561;DHT22;50960;46.838;16.838;2023-12-20T12:27:07;3.80;99.90
64561;DHT22;50960;46.838;16.838;2023-12-20T12:29:34;3.70;99.90
64561;DHT22;50960;46.838;16.838;2023-12-20T12:32:04;3.80;99.90
64561;DHT22;50960;46.838;16.838;2023-12-20T12:34:30;3.60;99.90
64561;DHT22;50960;46.838;16.838;2023-12-20T12:36:57;3.60;99.90
64561;DHT22;50960;46.838;16.838;2023-12-20T12:39:24;3.70;99.90
64561;DHT22;50960;46.838;16.838;2023-12-20T12:41:53;3.50;99.90
64561;DHT22;50960;46.838;16.838;2023-12-20T12:44:19;3.50;99.90
64561;DHT22;50960;46.838;16.838;2023-12-20T12:46:48;3.60;99.90
64561;DHT22;50960;46.838;16.838;2023-12-20T12:49:22;3.40;99.90
64561;DHT22;50960;46.838;16.838;2023-12-20T12:51:49;3.50;99.90
64561;DHT22;50960;46.838;16.838;2023-12-20T12:54:16;3.50;99.90
64561;DHT22;50960;46.838;16.838;2023-12-20T12:56:44;3.60;99.90
64561;DHT22;50960;46.838;16.838;2023-12-20T12:59:11;3.60;99.90
64561;DHT22;50960;46.838;16.838;2023-12-20T13:01:37;3.50;99.90
64561;DHT22;50960;46.838;16.838;2023-12-20T13:04:04;3.60;99.90
64561;DHT22;50960;46.838;16.838;2023-12-20T13:06:39;3.40;99.90
64561;DHT22;50960;46.838;16.838;2023-12-20T13:09:07;3.70;99.90
64561;DHT22;50960;46.838;16.838;2023-12-20T13:11:35;3.70;99.90
64561;DHT22;50960;46.838;16.838;2023-12-20T13:14:02;3.70;99.90
64561;DHT22;50960;46.838;16.838;2023-12-20T13:16:29;3.40;99.90
64561;DHT22;50960;46.838;16.838;2023-12-20T13:18:56;3.40;99.90
64561;DHT22;50960;46.838;16.838;2023-12-20T13:21:22;3.30;99.90
64561;DHT22;50960;46.838;16.838;2023-12-20T13:23:49;3.30;99.90
64561;DHT22;50960;46.838;16.838;2023-12-20T13:26:15;3.30;99.90
64561;DHT22;50960;46.838;16.838;2023-12-20T13:28:41;3.30;99.90
64561;DHT22;50960;46.838;16.838;2023-12-20T13:31:07;3.10;99.90
64561;DHT22;50960;46.838;16.838;2023-12-20T13:33:34;3.30;99.90
64561;DHT22;50960;46.838;16.838;2023-12-20T13:36:00;3.30;99.90
64561;DHT22;50960;46.838;16.838;2023-12-20T13:38:26;3.60;99.90
64561;DHT22;50960;46.838;16.838;2023-12-20T13:40:53;3.40;99.90
64561;DHT22;50960;46.838;16.838;2023-12-20T13:43:19;3.50;99.90
64561;DHT22;50960;46.838;16.838;2023-12-20T13:45:48;3.40;99.90
64561;DHT22;50960;46.838;16.838;2023-12-20T13:48:14;3.40;99.90
64561;DHT22;50960;46.838;16.838;2023-12-20T13:50:40;3.40;99.90
64561;DHT22;50960;46.838;16.838;2023-12-20T13:53:07;3.40;99.90
64561;DHT22;50960;46.838;16.838;2023-12-20T13:55:33;3.50;99.90
64561;DHT22;50960;46.838;16.838;2023-12-20T13:57:59;3.20;99.90
64561;DHT22;50960;46.838;16.838;2023-12-20T14:00:26;3.30;99.90
64561;DHT22;50960;46.838;16.838;2023-12-20T14:02:53;3.30;99.90
64561;DHT22;50960;46.838;16.838;2023-12-20T14:05:19;3.30;99.90
64561;DHT22;50960;46.838;16.838;2023-12-20T14:07:46;3.10;99.90
64561;DHT22;50960;46.838;16.838;2023-12-20T14:10:13;3.20;99.90
64561;DHT22;50960;46.838;16.838;2023-12-20T14:12:39;3.30;99.90
64561;DHT22;50960;46.838;16.838;2023-12-20T14:15:06;3.20;99.90
64561;DHT22;50960;46.838;16.838;2023-12-20T14:17:40;3.30;99.90
64561;DHT22;50960;46.838;16.838;2023-12-20T14:20:08;3.10;99.90
64561;DHT22;50960;46.838;16.838;2023-12-20T14:22:35;3.00;99.90
64561;DHT22;50960;46.838;16.838;2023-12-20T14:25:02;3.00;99.90
64561;DHT22;50960;46.838;16.838;2023-12-20T14:27:29;3.10;99.90
64561;DHT22;50960;46.838;16.838;2023-12-20T14:29:55;3.20;99.90
64561;DHT22;50960;46.838;16.838;2023-12-20T14:32:22;3.10;99.90
64561;DHT22;50960;46.838;16.838;2023-12-20T14:34:48;3.10;99.90
64561;DHT22;50960;46.838;16.838;2023-12-20T14:37:14;3.20;99.90
64561;DHT22;50960;46.838;16.838;2023-12-20T14:39:42;3.10;99.90
64561;DHT22;50960;46.838;16.838;2023-12-20T14:42:08;3.00;99.90
64561;DHT22;50960;46.838;16.838;2023-12-20T14:44:40;3.20;99.90
64561;DHT22;50960;46.838;16.838;2023-12-20T14:47:07;2.90;99.90
64561;DHT22;50960;46.838;16.838;2023-12-20T14:49:33;2.90;99.90
64561;DHT22;50960;46.838;16.838;2023-12-20T14:51:59;3.00;99.90
64561;DHT22;50960;46.838;16.838;2023-12-20T14:54:26;3.10;99.90
64561;DHT22;50960;46.838;16.838;2023-12-20T14:56:52;3.10;99.90
64561;DHT22;50960;46.838;16.838;2023-12-20T14:59:18;3.20;99.90
64561;DHT22;50960;46.838;16.838;2023-12-20T15:01:45;3.20;99.90
64561;DHT22;50960;46.838;16.838;2023-12-20T15:04:11;3.20;99.90
64561;DHT22;50960;46.838;16.838;2023-12-20T15:06:37;3.20;99.90
64561;DHT22;50960;46.838;16.838;2023-12-20T15:09:04;3.20;99.90
64561;DHT22;50960;46.838;16.838;2023-12-20T15:11:31;3.10;99.90
64561;DHT22;50960;46.838;16.838;2023-12-20T15:13:58;3.00;99.90
64561;DHT22;50960;46.838;16.838;2023-12-20T15:16:26;2.90;99.90
64561;DHT22;50960;46.838;16.838;2023-12-20T15:18:54;3.10;99.90
64561;DHT22;50960;46.838;16.838;2023-12-20T15:21:20;3.20;99.90
64561;DHT22;50960;46.838;16.838;2023-12-20T15:23:56;3.00;99.90
64561;DHT22;50960;46.838;16.838;2023-12-20T15:26:37;3.10;99.90
64561;DHT22;50960;46.838;16.838;2023-12-20T15:29:04;3.10;99.90
64561;DHT22;50960;46.838;16.838;2023-12-20T15:31:30;3.00;99.90
64561;DHT22;50960;46.838;16.838;2023-12-20T15:34:01;3.00;99.90
64561;DHT22;50960;46.838;16.838;2023-12-20T15:36:27;3.10;99.90
64561;DHT22;50960;46.838;16.838;2023-12-20T15:38:53;2.90;99.90
64561;DHT22;50960;46.838;16.838;2023-12-20T15:41:21;2.90;99.90
64561;DHT22;50960;46.838;16.838;2023-12-20T15:43:48;3.00;99.90
64561;DHT22;50960;46.838;16.838;2023-12-20T15:46:14;2.90;99.90
64561;DHT22;50960;46.838;16.838;2023-12-20T15:48:41;2.90;99.90
64561;DHT22;50960;46.838;16.838;2023-12-20T15:51:09;2.90;99.90
64561;DHT22;50960;46.838;16.838;2023-12-20T15:53:35;2.90;99.90
64561;DHT22;50960;46.838;16.838;2023-12-20T15:56:02;2.90;99.90
64561;DHT22;50960;46.838;16.838;2023-12-20T15:58:32;3.00;99.90
64561;DHT22;50960;46.838;16.838;2023-12-20T16:00:59;3.00;99.90
64561;DHT22;50960;46.838;16.838;2023-12-20T16:03:26;3.00;99.90
64561;DHT22;50960;46.838;16.838;2023-12-20T16:05:53;2.90;99.90
64561;DHT22;50960;46.838;16.838;2023-12-20T16:08:20;2.80;99.90
64561;DHT22;50960;46.838;16.838;2023-12-20T16:10:46;2.70;99.90
64561;DHT22;50960;46.838;16.838;2023-12-20T16:13:12;2.60;99.90
64561;DHT22;50960;46.838;16.838;2023-12-20T16:15:39;2.60;99.90
64561;DHT22;50960;46.838;16.838;2023-12-20T16:18:05;2.50;99.90
64561;DHT22;50960;46.838;16.838;2023-12-20T16:20:40;2.40;99.90
64561;DHT22;50960;46.838;16.838;2023-12-20T16:23:09;2.40;99.90
64561;DHT22;50960;46.838;16.838;2023-12-20T16:25:36;2.30;99.90
64561;DHT22;50960;46.838;16.838;2023-12-20T16:28:05;2.20;99.90
64561;DHT22;50960;46.838;16.838;2023-12-20T16:30:31;2.10;99.90
64561;DHT22;50960;46.838;16.838;2023-12-20T16:32:58;2.00;99.90
64561;DHT22;50960;46.838;16.838;2023-12-20T16:35:24;2.00;99.90
64561;DHT22;50960;46.838;16.838;2023-12-20T16:37:50;2.10;99.90
64561;DHT22;50960;46.838;16.838;2023-12-20T16:40:16;2.20;99.90
64561;DHT22;50960;46.838;16.838;2023-12-20T16:42:49;2.10;99.90
64561;DHT22;50960;46.838;16.838;2023-12-20T16:45:15;2.00;99.90
64561;DHT22;50960;46.838;16.838;2023-12-20T16:47:42;1.90;99.90
64561;DHT22;50960;46.838;16.838;2023-12-20T16:50:08;1.90;99.90
64561;DHT22;50960;46.838;16.838;2023-12-20T16:52:35;1.80;99.90
64561;DHT22;50960;46.838;16.838;2023-12-20T16:55:03;1.70;99.90
64561;DHT22;50960;46.838;16.838;2023-12-20T16:57:30;1.70;99.90
64561;DHT22;50960;46.838;16.838;2023-12-20T16:59:56;1.60;99.90
64561;DHT22;50960;46.838;16.838;2023-12-20T17:02:22;1.60;99.90
64561;DHT22;50960;46.838;16.838;2023-12-20T17:04:49;1.60;99.90
64561;DHT22;50960;46.838;16.838;2023-12-20T17:07:15;1.60;99.90
64561;DHT22;50960;46.838;16.838;2023-12-20T17:09:42;1.60;99.90
64561;DHT22;50960;46.838;16.838;2023-12-20T17:12:10;1.50;99.90
64561;DHT22;50960;46.838;16.838;2023-12-20T17:14:36;1.40;99.90
64561;DHT22;50960;46.838;16.838;2023-12-20T17:17:03;1.40;99.90
64561;DHT22;50960;46.838;16.838;2023-12-20T17:19:30;1.40;99.90
64561;DHT22;50960;46.838;16.838;2023-12-20T17:21:57;1.40;99.90
64561;DHT22;50960;46.838;16.838;2023-12-20T17:24:24;1.30;99.90
64561;DHT22;50960;46.838;16.838;2023-12-20T17:26:50;1.30;99.90
64561;DHT22;50960;46.838;16.838;2023-12-20T17:29:17;1.20;99.90
64561;DHT22;50960;46.838;16.838;2023-12-20T17:31:46;1.20;99.90
64561;DHT22;50960;46.838;16.838;2023-12-20T17:34:13;1.10;99.90
64561;DHT22;50960;46.838;16.838;2023-12-20T17:36:43;1.10;99.90
64561;DHT22;50960;46.838;16.838;2023-12-20T17:39:10;1.10;99.90
64561;DHT22;50960;46.838;16.838;2023-12-20T17:41:37;1.00;99.90
64561;DHT22;50960;46.838;16.838;2023-12-20T17:44:04;1.10;99.90
64561;DHT22;50960;46.838;16.838;2023-12-20T17:46:31;1.00;99.90
64561;DHT22;50960;46.838;16.838;2023-12-20T17:48:57;0.90;99.90
64561;DHT22;50960;46.838;16.838;2023-12-20T17:51:23;0.90;99.90
64561;DHT22;50960;46.838;16.838;2023-12-20T17:53:50;0.90;99.90
64561;DHT22;50960;46.838;16.838;2023-12-20T17:56:17;0.90;99.90
64561;DHT22;50960;46.838;16.838;2023-12-20T17:58:43;0.80;99.90
64561;DHT22;50960;46.838;16.838;2023-12-20T18:01:10;0.80;99.90
64561;DHT22;50960;46.838;16.838;2023-12-20T18:03:37;0.80;99.90
64561;DHT22;50960;46.838;16.838;2023-12-20T18:06:03;0.70;99.90
64561;DHT22;50960;46.838;16.838;2023-12-20T18:08:29;0.70;99.90
64561;DHT22;50960;46.838;16.838;2023-12-20T18:10:55;0.70;99.90
64561;DHT22;50960;46.838;16.838;2023-12-20T18:13:22;0.60;99.90
64561;DHT22;50960;46.838;16.838;2023-12-20T18:15:48;0.60;99.90
64561;DHT22;50960;46.838;16.838;2023-12-20T18:18:14;0.60;99.90
64561;DHT22;50960;46.838;16.838;2023-12-20T18:20:40;0.50;99.90
64561;DHT22;50960;46.838;16.838;2023-12-20T18:23:06;0.50;99.90
64561;DHT22;50960;46.838;16.838;2023-12-20T18:25:33;0.50;99.90
64561;DHT22;50960;46.838;16.838;2023-12-20T18:27:59;0.40;99.90
64561;DHT22;50960;46.838;16.838;2023-12-20T18:30:26;0.30;99.90
64561;DHT22;50960;46.838;16.838;2023-12-20T18:32:52;0.40;99.90
64561;DHT22;50960;46.838;16.838;2023-12-20T18:35:18;0.40;99.90
64561;DHT22;50960;46.838;16.838;2023-12-20T18:37:44;0.40;99.90
64561;DHT22;50960;46.838;16.838;2023-12-20T18:40:11;0.30;99.90
64561;DHT22;50960;46.838;16.838;2023-12-20T18:42:37;0.30;99.90
64561;DHT22;50960;46.838;16.838;2023-12-20T18:45:04;0.30;99.90
64561;DHT22;50960;46.838;16.838;2023-12-20T18:47:30;0.30;99.90
64561;DHT22;50960;46.838;16.838;2023-12-20T18:49:57;0.20;99.90
64561;DHT22;50960;46.838;16.838;2023-12-20T18:52:24;0.00;99.90
64561;DHT22;50960;46.838;16.838;2023-12-20T18:54:51;-0.10;99.90
64561;DHT22;50960;46.838;16.838;2023-12-20T18:57:17;0.00;99.90
64561;DHT22;50960;46.838;16.838;2023-12-20T18:59:43;0.20;99.90
64561;DHT22;50960;46.838;16.838;2023-12-20T19:02:09;0.20;99.90
64561;DHT22;50960;46.838;16.838;2023-12-20T19:04:37;0.30;99.90
64561;DHT22;50960;46.838;16.838;2023-12-20T19:07:03;0.30;99.90
64561;DHT22;50960;46.838;16.838;2023-12-20T19:09:30;0.20;99.90
64561;DHT22;50960;46.838;16.838;2023-12-20T19:11:56;0.10;99.90
64561;DHT22;50960;46.838;16.838;2023-12-20T19:14:22;0.10;99.90
64561;DHT22;50960;46.838;16.838;2023-12-20T19:16:49;0.20;99.90
64561;DHT22;50960;46.838;16.838;2023-12-20T19:19:16;0.30;99.90
64561;DHT22;50960;46.838;16.838;2023-12-20T19:21:42;0.40;99.90
64561;DHT22;50960;46.838;16.838;2023-12-20T19:24:09;0.50;99.90
64561;DHT22;50960;46.838;16.838;2023-12-20T19:26:35;0.50;99.90
64561;DHT22;50960;46.838;16.838;2023-12-20T19:29:01;0.40;99.90
64561;DHT22;50960;46.838;16.838;2023-12-20T19:31:27;0.40;99.90
64561;DHT22;50960;46.838;16.838;2023-12-20T19:33:54;0.40;99.90
64561;DHT22;50960;46.838;16.838;2023-12-20T19:36:22;0.40;99.90
64561;DHT22;50960;46.838;16.838;2023-12-20T19:38:48;0.50;99.90
64561;DHT22;50960;46.838;16.838;2023-12-20T19:41:14;0.50;99.90
64561;DHT22;50960;46.838;16.838;2023-12-20T19:43:42;0.50;99.90
64561;DHT22;50960;46.838;16.838;2023-12-20T19:46:09;0.50;99.90
64561;DHT22;50960;46.838;16.838;2023-12-20T19:48:37;0.30;99.90
64561;DHT22;50960;46.838;16.838;2023-12-20T19:51:03;0.40;99.90
64561;DHT22;50960;46.838;16.838;2023-12-20T19:53:29;0.40;99.90
64561;DHT22;50960;46.838;16.838;2023-12-20T19:55:56;0.40;99.90
64561;DHT22;50960;46.838;16.838;2023-12-20T19:58:22;0.30;99.90
64561;DHT22;50960;46.838;16.838;2023-12-20T20:00:48;0.10;99.90
64561;DHT22;50960;46.838;16.838;2023-12-20T20:03:15;0.20;99.90
64561;DHT22;50960;46.838;16.838;2023-12-20T20:05:41;0.20;99.90
64561;DHT22;50960;46.838;16.838;2023-12-20T20:08:07;0.40;99.90
64561;DHT22;50960;46.838;16.838;2023-12-20T20:10:33;0.50;99.90
64561;DHT22;50960;46.838;16.838;2023-12-20T20:13:00;0.50;99.90
64561;DHT22;50960;46.838;16.838;2023-12-20T20:15:27;0.50;99.90
64561;DHT22;50960;46.838;16.838;2023-12-20T20:17:53;0.30;99.90
64561;DHT22;50960;46.838;16.838;2023-12-20T20:20:19;0.30;99.90